Plainfield, Illinois
Current Conditions -  °F | °C
As of 12:55 PM on Monday 20 Oct 2014 (Local Time) from KLOT Reporting Station
Clear Clear  
Wind Chill: 18°   Ceiling: Unl
Heat Index: 18°   Visibility: 10mi
Dew Point:   Wind: 7mph
Humidity: 53%   Direction: 320°NW
Pressure: 29.85"   Gusts: NA
Location:  41.62°N, 88.2°W
Report Text: KLOT 201755Z AUTO 32006KT 10SM CLR 18/08 A2985 RMK AO2 T01750079 10175 20080
Loading
Personal Weather Stations






























Interactive Weather Map
Tropical Storm Tracking
New forecast layout! Learn more

10-Day Weather Forecast

Advertisements
Track Severe Weather on mobile